Time;durP1;ratioP1;P1;durP2;ratioP2;P2;SDS_P1;SDS_P2;PMS_P1;PMS_P2;Temp;Humidity;BMP_temperature;BMP_pressure;BME280_temperature;BME280_humidity;BME280_pressure;Samples;Min_cycle;Max_cycle;Signal;HPM_P1;HPM_P2
2021/09/05 00:01:33;;;;;;;14.50;10.55;;;;;;;;;;4918318;29;20056;-46
2021/09/05 00:04:03;;;;;;;16.50;11.93;;;;;;;;;;4916943;29;20054;-48
2021/09/05 00:06:29;;;;;;;15.15;11.77;;;;;;;;;;4917392;29;20399;-51
2021/09/05 00:08:57;;;;;;;14.80;11.65;;;;;;;;;;4917098;29;20066;-47
2021/09/05 00:11:24;;;;;;;15.88;11.77;;;;;;;;;;4917236;29;20044;-47
2021/09/05 00:13:51;;;;;;;15.45;11.55;;;;;;;;;;4918038;29;20128;-48
2021/09/05 00:16:18;;;;;;;15.18;11.43;;;;;;;;;;4933046;29;20048;-48
2021/09/05 00:18:45;;;;;;;16.45;11.45;;;;;;;;;;4926724;29;20536;-47
2021/09/05 00:21:12;;;;;;;16.27;11.32;;;;;;;;;;4930992;29;20104;-48
2021/09/05 00:23:39;;;;;;;18.00;11.82;;;;;;;;;;4929229;29;20088;-47
2021/09/05 00:26:05;;;;;;;17.38;12.35;;;;;;;;;;4925004;29;20051;-47
2021/09/05 00:28:32;;;;;;;16.83;12.52;;;;;;;;;;4922975;29;20035;-46
2021/09/05 00:31:00;;;;;;;18.02;12.25;;;;;;;;;;4929681;29;20052;-47
2021/09/05 00:33:27;;;;;;;14.60;11.43;;;;;;;;;;4914119;29;20096;-47
2021/09/05 00:35:54;;;;;;;15.07;11.88;;;;;;;;;;4930137;29;20031;-46
2021/09/05 00:38:23;;;;;;;16.20;11.50;;;;;;;;;;4931574;29;20491;-49
2021/09/05 00:40:50;;;;;;;16.60;12.10;;;;;;;;;;4921375;29;20078;-47
2021/09/05 00:43:17;;;;;;;15.68;11.27;;;;;;;;;;4920356;29;20036;-49
2021/09/05 00:45:44;;;;;;;17.73;12.80;;;;;;;;;;4921824;29;20054;-48
2021/09/05 00:48:11;;;;;;;15.50;12.20;;;;;;;;;;4915291;29;20040;-49
2021/09/05 00:50:38;;;;;;;16.85;12.20;;;;;;;;;;4926900;29;20043;-46
2021/09/05 00:53:06;;;;;;;16.27;11.50;;;;;;;;;;4926433;29;20044;-46
2021/09/05 00:55:36;;;;;;;16.27;12.20;;;;;;;;;;4921410;29;20172;-53
2021/09/05 00:58:07;;;;;;;16.00;11.82;;;;;;;;;;4928769;29;20445;-46
2021/09/05 01:00:36;;;;;;;16.02;11.93;;;;;;;;;;4920589;29;20039;-47
2021/09/05 01:03:03;;;;;;;15.27;11.02;;;;;;;;;;4917659;29;20868;-50
2021/09/05 01:05:33;;;;;;;17.30;11.48;;;;;;;;;;4920349;29;20098;-46
2021/09/05 01:08:00;;;;;;;15.73;11.07;;;;;;;;;;4923762;29;20111;-47
2021/09/05 01:10:27;;;;;;;16.77;11.82;;;;;;;;;;4921112;29;20106;-46
2021/09/05 01:12:57;;;;;;;16.75;11.57;;;;;;;;;;4915740;29;20091;-45
2021/09/05 01:15:24;;;;;;;15.35;11.73;;;;;;;;;;4915906;29;20047;-47
2021/09/05 01:17:53;;;;;;;16.80;11.82;;;;;;;;;;4930180;29;20120;-46
2021/09/05 01:20:49;;;;;;;14.85;11.75;;;;;;;;;;4924466;29;20059;-45
2021/09/05 01:23:35;;;;;;;19.30;11.43;;;;;;;;;;4928242;29;20115;-47
2021/09/05 01:26:21;;;;;;;14.95;10.57;;;;;;;;;;4924879;29;20056;-46
2021/09/05 01:29:07;;;;;;;18.15;11.80;;;;;;;;;;4930440;29;20114;-49
2021/09/05 01:32:02;;;;;;;16.20;11.27;;;;;;;;;;4919637;29;20103;-47
2021/09/05 01:34:58;;;;;;;14.23;11.05;;;;;;;;;;4895928;29;20425;-46
2021/09/05 01:37:55;;;;;;;15.95;11.43;;;;;;;;;;4919615;29;20069;-45
2021/09/05 01:40:48;;;;;;;15.00;11.65;;;;;;;;;;4917922;29;20489;-47
2021/09/05 01:43:36;;;;;;;16.55;11.75;;;;;;;;;;4920022;29;20087;-48
2021/09/05 01:46:38;;;;;;;17.42;11.98;;;;;;;;;;4912660;29;20044;-47
2021/09/05 01:49:27;;;;;;;14.82;11.70;;;;;;;;;;4942362;29;20040;-46
2021/09/05 01:52:13;;;;;;;15.13;11.65;;;;;;;;;;4924617;29;20036;-48
2021/09/05 01:54:58;;;;;;;14.45;11.73;;;;;;;;;;4915329;29;20040;-46
2021/09/05 01:57:57;;;;;;;15.95;10.82;;;;;;;;;;4918058;29;20036;-47
2021/09/05 02:00:42;;;;;;;14.82;11.25;;;;;;;;;;4929792;29;20045;-49
2021/09/05 02:03:19;;;;;;;16.92;11.32;;;;;;;;;;4934670;29;20052;-47
2021/09/05 02:05:58;;;;;;;16.73;12.05;;;;;;;;;;4919366;29;20409;-48
2021/09/05 02:08:44;;;;;;;15.65;11.55;;;;;;;;;;4934261;29;20044;-46
2021/09/05 02:11:32;;;;;;;14.82;10.77;;;;;;;;;;4923717;29;20044;-46
2021/09/05 02:14:23;;;;;;;15.70;11.15;;;;;;;;;;4917388;29;20044;-46
2021/09/05 02:17:16;;;;;;;14.73;10.93;;;;;;;;;;4914215;29;20253;-46
2021/09/05 02:20:07;;;;;;;15.63;10.70;;;;;;;;;;4913750;29;20052;-46
2021/09/05 02:22:54;;;;;;;13.27;10.15;;;;;;;;;;4925883;29;20107;-45
2021/09/05 02:25:39;;;;;;;14.82;11.35;;;;;;;;;;4916305;29;20055;-49
2021/09/05 02:28:24;;;;;;;14.05;9.93;;;;;;;;;;4917211;29;20130;-45
2021/09/05 02:31:11;;;;;;;14.85;10.43;;;;;;;;;;4920564;29;20059;-46
2021/09/05 02:34:13;;;;;;;12.93;9.65;;;;;;;;;;4873074;29;20129;-47
2021/09/05 02:36:59;;;;;;;14.00;11.30;;;;;;;;;;4917223;29;20614;-47
2021/09/05 02:39:43;;;;;;;13.02;9.48;;;;;;;;;;4929406;29;20043;-49
2021/09/05 02:42:10;;;;;;;12.35;9.57;;;;;;;;;;4923599;29;20119;-49
2021/09/05 02:44:55;;;;;;;14.20;10.45;;;;;;;;;;4920751;29;20040;-47
2021/09/05 02:47:51;;;;;;;13.63;9.98;;;;;;;;;;4888466;29;20134;-49
2021/09/05 02:50:36;;;;;;;13.20;9.32;;;;;;;;;;4918490;29;20387;-46
2021/09/05 02:53:29;;;;;;;12.87;9.73;;;;;;;;;;4927189;29;20062;-46
2021/09/05 02:56:04;;;;;;;11.55;8.95;;;;;;;;;;4924940;29;20044;-46
2021/09/05 02:58:49;;;;;;;12.93;9.40;;;;;;;;;;4918794;29;20043;-48
2021/09/05 03:01:35;;;;;;;13.05;9.65;;;;;;;;;;4931665;29;20516;-47
2021/09/05 03:04:20;;;;;;;12.05;9.75;;;;;;;;;;4915302;29;20033;-47
2021/09/05 03:07:18;;;;;;;13.77;9.68;;;;;;;;;;4916472;29;20036;-47
2021/09/05 03:10:05;;;;;;;15.35;9.68;;;;;;;;;;4915614;29;20127;-46
2021/09/05 03:12:41;;;;;;;14.68;9.68;;;;;;;;;;4933713;29;20047;-46
2021/09/05 03:15:28;;;;;;;12.13;8.85;;;;;;;;;;4899365;29;20119;-46
2021/09/05 03:18:17;;;;;;;11.93;9.45;;;;;;;;;;4925577;29;20044;-47
2021/09/05 03:20:56;;;;;;;14.75;9.38;;;;;;;;;;4931933;29;20032;-46
2021/09/05 03:23:43;;;;;;;11.55;9.35;;;;;;;;;;4921180;29;20080;-46
2021/09/05 03:26:38;;;;;;;16.35;9.18;;;;;;;;;;4915594;29;20123;-45
2021/09/05 03:29:28;;;;;;;13.35;8.93;;;;;;;;;;4925632;29;20060;-47
2021/09/05 03:32:12;;;;;;;12.70;9.35;;;;;;;;;;4916188;29;20048;-46
2021/09/05 03:35:00;;;;;;;10.18;7.95;;;;;;;;;;4918822;29;20562;-46
2021/09/05 03:38:00;;;;;;;13.00;9.05;;;;;;;;;;4923620;29;20040;-48
2021/09/05 03:41:02;;;;;;;12.18;8.70;;;;;;;;;;4904517;29;20058;-47
2021/09/05 03:43:55;;;;;;;14.52;8.30;;;;;;;;;;4894787;29;20128;-48
2021/09/05 03:46:40;;;;;;;13.05;8.10;;;;;;;;;;4925692;29;20409;-45
2021/09/05 03:49:26;;;;;;;17.25;8.63;;;;;;;;;;4928919;29;20044;-49
2021/09/05 03:51:53;;;;;;;10.68;8.07;;;;;;;;;;4914758;29;20040;-46
2021/09/05 03:54:21;;;;;;;12.27;8.32;;;;;;;;;;4929567;29;20087;-49
2021/09/05 03:56:49;;;;;;;11.30;8.65;;;;;;;;;;4923260;29;20055;-49
2021/09/05 03:59:16;;;;;;;10.80;8.32;;;;;;;;;;4920559;29;20058;-46
2021/09/05 04:01:43;;;;;;;10.23;8.07;;;;;;;;;;4922141;29;20533;-45
2021/09/05 04:04:17;;;;;;;11.82;8.45;;;;;;;;;;4923799;29;20044;-48
2021/09/05 04:06:49;;;;;;;11.52;8.45;;;;;;;;;;4915492;29;20131;-48
2021/09/05 04:12:02;;;;;;;11.23;8.10;;;;;;;;;;4929374;29;20044;-47
2021/09/05 04:14:28;;;;;;;10.45;7.97;;;;;;;;;;4930275;29;20482;-46
2021/09/05 04:17:00;;;;;;;11.48;8.93;;;;;;;;;;4921422;29;20406;-48
2021/09/05 04:19:26;;;;;;;11.38;8.20;;;;;;;;;;4915688;29;20055;-46
2021/09/05 04:21:53;;;;;;;10.93;7.50;;;;;;;;;;4923094;29;20044;-45
2021/09/05 04:24:21;;;;;;;9.90;8.27;;;;;;;;;;4935454;29;20130;-45
2021/09/05 04:26:48;;;;;;;11.45;8.85;;;;;;;;;;4920246;29;20131;-48
2021/09/05 04:29:15;;;;;;;14.02;8.80;;;;;;;;;;4917316;29;20560;-49
2021/09/05 04:31:42;;;;;;;10.82;8.30;;;;;;;;;;4929941;29;20036;-48
2021/09/05 04:34:09;;;;;;;11.75;8.13;;;;;;;;;;4923516;29;20134;-48
2021/09/05 04:36:36;;;;;;;11.82;8.82;;;;;;;;;;4926624;29;20050;-49
2021/09/05 04:39:02;;;;;;;10.80;8.50;;;;;;;;;;4917989;29;20363;-46
2021/09/05 04:41:29;;;;;;;13.27;8.50;;;;;;;;;;4915941;29;20127;-48
2021/09/05 04:43:56;;;;;;;10.30;8.10;;;;;;;;;;4916736;29;20042;-48
2021/09/05 04:46:23;;;;;;;11.07;8.48;;;;;;;;;;4933881;29;20521;-45
2021/09/05 04:48:50;;;;;;;12.18;8.18;;;;;;;;;;4921375;29;20644;-46
2021/09/05 04:51:16;;;;;;;14.40;8.95;;;;;;;;;;4926017;29;20055;-49
2021/09/05 04:53:43;;;;;;;12.18;8.55;;;;;;;;;;4926038;29;20044;-46
2021/09/05 04:56:10;;;;;;;11.00;8.73;;;;;;;;;;4930017;29;20500;-48
2021/09/05 04:58:36;;;;;;;11.93;8.52;;;;;;;;;;4919857;29;20036;-46
2021/09/05 05:01:03;;;;;;;10.82;8.07;;;;;;;;;;4925084;29;20127;-45
2021/09/05 05:03:30;;;;;;;11.40;8.38;;;;;;;;;;4919968;29;20091;-46
2021/09/05 05:06:17;;;;;;;11.52;8.20;;;;;;;;;;4926621;29;20052;-46
2021/09/05 05:08:43;;;;;;;11.75;8.05;;;;;;;;;;4915224;29;20033;-47
2021/09/05 05:11:14;;;;;;;11.20;7.53;;;;;;;;;;4922835;29;20401;-45
2021/09/05 05:13:40;;;;;;;10.63;7.65;;;;;;;;;;4915417;29;20131;-47
2021/09/05 05:16:07;;;;;;;12.25;9.00;;;;;;;;;;4920887;29;20139;-45
2021/09/05 05:18:34;;;;;;;10.40;8.02;;;;;;;;;;4915427;29;20036;-45
2021/09/05 05:21:01;;;;;;;14.82;8.80;;;;;;;;;;4915981;29;20103;-47
2021/09/05 05:23:29;;;;;;;10.70;8.13;;;;;;;;;;4913819;29;20118;-48
2021/09/05 05:25:56;;;;;;;10.65;7.75;;;;;;;;;;4925641;29;20044;-46
2021/09/05 05:28:23;;;;;;;10.27;7.45;;;;;;;;;;4925569;29;20052;-46
2021/09/05 05:30:50;;;;;;;11.85;7.93;;;;;;;;;;4915345;29;20115;-46
2021/09/05 05:33:17;;;;;;;10.15;8.25;;;;;;;;;;4915276;29;20051;-46
2021/09/05 05:35:44;;;;;;;14.02;8.00;;;;;;;;;;4920512;29;20075;-49
2021/09/05 05:38:10;;;;;;;10.77;8.32;;;;;;;;;;4932651;29;20071;-46
2021/09/05 05:40:37;;;;;;;11.10;8.18;;;;;;;;;;4927398;29;20043;-46
2021/09/05 05:43:04;;;;;;;11.70;8.52;;;;;;;;;;4928440;29;20044;-49
2021/09/05 05:45:31;;;;;;;12.77;8.20;;;;;;;;;;4932420;29;20099;-47
2021/09/05 05:47:58;;;;;;;12.20;8.15;;;;;;;;;;4920096;29;20040;-49
2021/09/05 05:50:25;;;;;;;10.98;8.63;;;;;;;;;;4922186;29;20044;-48
2021/09/05 05:52:52;;;;;;;10.15;8.25;;;;;;;;;;4921179;29;20549;-46
2021/09/05 05:55:19;;;;;;;12.25;8.07;;;;;;;;;;4916414;29;20139;-49
2021/09/05 05:57:46;;;;;;;20.13;8.90;;;;;;;;;;4914311;29;20474;-45
2021/09/05 06:00:13;;;;;;;12.30;8.18;;;;;;;;;;4916577;29;20046;-46
2021/09/05 06:02:40;;;;;;;11.90;8.85;;;;;;;;;;4919152;29;20131;-46
2021/09/05 06:05:07;;;;;;;11.10;8.18;;;;;;;;;;4919702;29;20051;-47
2021/09/05 06:07:35;;;;;;;9.70;7.72;;;;;;;;;;4928631;29;20183;-46
2021/09/05 06:10:02;;;;;;;10.57;8.07;;;;;;;;;;4917089;29;20055;-46
2021/09/05 06:12:28;;;;;;;11.95;8.38;;;;;;;;;;4915794;29;20058;-51
2021/09/05 06:14:56;;;;;;;12.50;7.53;;;;;;;;;;4916332;29;20046;-48
2021/09/05 06:17:22;;;;;;;9.93;7.72;;;;;;;;;;4914531;29;20375;-46
2021/09/05 06:19:49;;;;;;;10.20;8.40;;;;;;;;;;4933077;29;20078;-45
2021/09/05 06:22:16;;;;;;;11.45;7.88;;;;;;;;;;4926229;29;20047;-50
2021/09/05 06:24:43;;;;;;;11.50;7.97;;;;;;;;;;4920137;29;20173;-47
2021/09/05 06:27:10;;;;;;;10.32;7.75;;;;;;;;;;4924575;29;20458;-46
2021/09/05 06:29:36;;;;;;;12.95;8.25;;;;;;;;;;4913932;29;20498;-45
2021/09/05 06:32:03;;;;;;;10.35;8.15;;;;;;;;;;4915560;29;20046;-46
2021/09/05 06:34:30;;;;;;;12.60;8.95;;;;;;;;;;4919368;29;20039;-48
2021/09/05 06:36:57;;;;;;;11.20;8.88;;;;;;;;;;4931637;29;20036;-49
2021/09/05 06:39:23;;;;;;;12.82;8.82;;;;;;;;;;4917988;29;20414;-47
2021/09/05 06:41:50;;;;;;;11.65;8.60;;;;;;;;;;4921440;29;20040;-46
2021/09/05 06:44:17;;;;;;;11.45;8.63;;;;;;;;;;4925760;29;20418;-45
2021/09/05 06:46:45;;;;;;;11.57;9.32;;;;;;;;;;4928364;29;20079;-45
2021/09/05 06:49:12;;;;;;;10.82;8.57;;;;;;;;;;4930840;29;20044;-45
2021/09/05 06:51:38;;;;;;;10.43;8.52;;;;;;;;;;4922057;29;20044;-45
2021/09/05 06:54:05;;;;;;;11.40;8.52;;;;;;;;;;4926299;29;20553;-46
2021/09/05 06:56:32;;;;;;;9.65;8.38;;;;;;;;;;4928447;29;20123;-47
2021/09/05 06:58:58;;;;;;;10.68;8.48;;;;;;;;;;4924144;29;20040;-45
2021/09/05 07:01:25;;;;;;;10.20;8.38;;;;;;;;;;4930596;29;20130;-46
2021/09/05 07:03:53;;;;;;;10.82;8.38;;;;;;;;;;4935242;29;20062;-46
2021/09/05 07:06:19;;;;;;;11.15;7.78;;;;;;;;;;4926522;29;20051;-48
2021/09/05 07:08:46;;;;;;;9.98;7.88;;;;;;;;;;4926950;29;20122;-45
2021/09/05 07:11:13;;;;;;;10.93;8.10;;;;;;;;;;4931249;29;20044;-46
2021/09/05 07:13:40;;;;;;;9.57;7.93;;;;;;;;;;4922130;29;20046;-45
2021/09/05 07:16:07;;;;;;;10.48;8.57;;;;;;;;;;4930390;29;20040;-46
2021/09/05 07:18:33;;;;;;;11.23;8.15;;;;;;;;;;4920066;29;20436;-46
2021/09/05 07:21:00;;;;;;;11.57;8.98;;;;;;;;;;4925191;29;20048;-46
2021/09/05 07:23:28;;;;;;;10.60;8.57;;;;;;;;;;4919950;29;20116;-46
2021/09/05 07:25:55;;;;;;;10.68;7.85;;;;;;;;;;4918485;29;20055;-46
2021/09/05 07:28:22;;;;;;;9.77;8.13;;;;;;;;;;4917616;29;20447;-47
2021/09/05 07:30:49;;;;;;;10.30;8.00;;;;;;;;;;4934937;29;20044;-45
2021/09/05 07:33:16;;;;;;;10.38;8.65;;;;;;;;;;4917213;29;20127;-45
2021/09/05 07:35:43;;;;;;;11.25;8.82;;;;;;;;;;4931524;29;20035;-45
2021/09/05 07:38:10;;;;;;;10.98;8.40;;;;;;;;;;4920840;29;20490;-50
2021/09/05 07:40:37;;;;;;;12.13;9.00;;;;;;;;;;4923087;29;20139;-48
2021/09/05 07:43:03;;;;;;;14.40;8.68;;;;;;;;;;4916962;29;20051;-46
2021/09/05 07:45:31;;;;;;;10.77;8.02;;;;;;;;;;4920670;29;20092;-45
2021/09/05 07:47:58;;;;;;;10.55;8.35;;;;;;;;;;4934662;29;20051;-45
2021/09/05 07:50:25;;;;;;;11.18;7.93;;;;;;;;;;4934348;29;20050;-46
2021/09/05 07:52:52;;;;;;;9.65;7.55;;;;;;;;;;4921680;29;20036;-45
2021/09/05 07:55:19;;;;;;;9.43;7.28;;;;;;;;;;4931514;29;20497;-45
2021/09/05 07:57:45;;;;;;;12.60;8.57;;;;;;;;;;4924399;29;20040;-46
2021/09/05 08:00:12;;;;;;;11.57;7.82;;;;;;;;;;4917202;29;20048;-45
2021/09/05 08:02:40;;;;;;;9.98;7.97;;;;;;;;;;4927151;29;20510;-50
2021/09/05 08:05:08;;;;;;;10.05;7.57;;;;;;;;;;4927138;29;20458;-46
2021/09/05 08:07:35;;;;;;;10.23;7.63;;;;;;;;;;4928535;29;20044;-46
2021/09/05 08:10:03;;;;;;;9.77;7.40;;;;;;;;;;4916700;29;20550;-47
2021/09/05 08:12:30;;;;;;;12.70;9.77;;;;;;;;;;4917373;29;20044;-46
2021/09/05 08:14:57;;;;;;;12.82;8.13;;;;;;;;;;4917836;29;20621;-46
2021/09/05 08:17:24;;;;;;;10.55;8.77;;;;;;;;;;4924978;29;20040;-46
2021/09/05 08:19:51;;;;;;;12.05;7.82;;;;;;;;;;4928552;29;20051;-47
2021/09/05 08:22:18;;;;;;;11.80;7.95;;;;;;;;;;4925170;29;20127;-46
2021/09/05 08:24:45;;;;;;;11.02;7.80;;;;;;;;;;4927137;29;20367;-46
2021/09/05 08:27:11;;;;;;;9.07;7.65;;;;;;;;;;4917140;29;20048;-45
2021/09/05 08:29:38;;;;;;;10.27;7.95;;;;;;;;;;4920586;29;20052;-46
2021/09/05 08:32:05;;;;;;;11.80;7.25;;;;;;;;;;4920255;29;20236;-46
2021/09/05 08:34:34;;;;;;;10.15;7.95;;;;;;;;;;4916792;29;20618;-48
2021/09/05 08:37:01;;;;;;;10.98;7.95;;;;;;;;;;4923695;29;20043;-49
2021/09/05 08:39:28;;;;;;;9.05;7.10;;;;;;;;;;4921996;29;20143;-46
2021/09/05 08:41:56;;;;;;;9.85;7.68;;;;;;;;;;4923315;29;20059;-45
2021/09/05 08:44:23;;;;;;;10.20;7.65;;;;;;;;;;4931046;29;20054;-46
2021/09/05 08:46:53;;;;;;;8.70;7.30;;;;;;;;;;4926202;29;20123;-45
2021/09/05 08:49:24;;;;;;;10.60;7.70;;;;;;;;;;4931847;29;20130;-45
2021/09/05 08:51:52;;;;;;;10.85;7.68;;;;;;;;;;4921595;29;20043;-46
2021/09/05 08:54:19;;;;;;;11.95;8.13;;;;;;;;;;4925883;29;20048;-47
2021/09/05 08:56:47;;;;;;;10.13;8.18;;;;;;;;;;4939866;29;20162;-48
2021/09/05 08:59:14;;;;;;;12.88;8.52;;;;;;;;;;4928289;28;20364;-46
2021/09/05 09:01:50;;;;;;;9.30;7.18;;;;;;;;;;4928492;29;20103;-45
2021/09/05 09:04:17;;;;;;;11.40;7.07;;;;;;;;;;4926695;29;20040;-46
2021/09/05 09:06:44;;;;;;;9.85;7.00;;;;;;;;;;4922839;29;20512;-46
2021/09/05 09:09:10;;;;;;;10.25;6.93;;;;;;;;;;4921351;29;20147;-46
2021/09/05 09:11:46;;;;;;;9.95;6.80;;;;;;;;;;4916598;29;20044;-45
2021/09/05 09:14:13;;;;;;;10.88;6.47;;;;;;;;;;4916342;29;20048;-46
2021/09/05 09:16:40;;;;;;;8.75;6.60;;;;;;;;;;4920556;29;20048;-47
2021/09/05 09:19:06;;;;;;;9.23;7.15;;;;;;;;;;4916446;29;20040;-45
2021/09/05 09:21:38;;;;;;;9.27;7.00;;;;;;;;;;4922256;29;20054;-46
2021/09/05 09:24:09;;;;;;;9.15;6.63;;;;;;;;;;4918995;29;20458;-47
2021/09/05 09:26:35;;;;;;;8.82;6.25;;;;;;;;;;4917737;29;20044;-48
2021/09/05 09:29:02;;;;;;;10.95;6.00;;;;;;;;;;4916759;29;20052;-46
2021/09/05 09:31:29;;;;;;;7.75;5.70;;;;;;;;;;4920967;29;20052;-47
2021/09/05 09:33:57;;;;;;;7.20;5.63;;;;;;;;;;4929399;29;20063;-46
2021/09/05 09:36:25;;;;;;;9.13;5.90;;;;;;;;;;4927607;29;20130;-45
2021/09/05 09:38:53;;;;;;;7.88;5.50;;;;;;;;;;4927561;29;20067;-46
2021/09/05 09:41:20;;;;;;;8.85;5.68;;;;;;;;;;4931834;29;20058;-46
2021/09/05 09:43:57;;;;;;;6.95;5.82;;;;;;;;;;4926217;29;20050;-47
2021/09/05 09:46:28;;;;;;;8.27;5.35;;;;;;;;;;4916087;29;20107;-45
2021/09/05 09:48:56;;;;;;;8.60;5.63;;;;;;;;;;4916012;29;20134;-48
2021/09/05 09:51:23;;;;;;;8.75;5.88;;;;;;;;;;4917011;29;20052;-48
2021/09/05 09:53:51;;;;;;;8.05;5.40;;;;;;;;;;4924673;29;20046;-50
2021/09/05 09:56:22;;;;;;;8.18;5.65;;;;;;;;;;4930069;29;20036;-47
2021/09/05 09:58:53;;;;;;;7.40;5.28;;;;;;;;;;4915576;29;20044;-47
2021/09/05 10:01:21;;;;;;;6.50;5.53;;;;;;;;;;4926152;29;20421;-46
2021/09/05 10:03:49;;;;;;;11.77;7.85;;;;;;;;;;4914891;29;20044;-45
2021/09/05 10:06:17;;;;;;;8.07;5.93;;;;;;;;;;4924066;29;20048;-46
2021/09/05 10:08:44;;;;;;;7.18;5.70;;;;;;;;;;4930500;29;20051;-49
2021/09/05 10:11:14;;;;;;;8.13;6.00;;;;;;;;;;4934074;29;20044;-46
2021/09/05 10:13:43;;;;;;;9.43;6.00;;;;;;;;;;4926413;29;20063;-48
2021/09/05 10:16:10;;;;;;;7.45;5.93;;;;;;;;;;4929686;29;20047;-46
2021/09/05 10:18:57;;;;;;;7.68;6.20;;;;;;;;;;4921376;29;20130;-47
2021/09/05 10:21:24;;;;;;;8.95;6.05;;;;;;;;;;4919354;29;20880;-47
2021/09/05 10:23:52;;;;;;;9.48;6.40;;;;;;;;;;4920600;29;20047;-48
2021/09/05 10:26:19;;;;;;;7.72;6.05;;;;;;;;;;4915275;29;20044;-46
2021/09/05 10:28:47;;;;;;;7.88;6.10;;;;;;;;;;4919060;29;20048;-49
2021/09/05 10:31:24;;;;;;;8.38;5.78;;;;;;;;;;4926743;29;20040;-49
2021/09/05 10:33:51;;;;;;;8.05;6.22;;;;;;;;;;4919503;29;20174;-45
2021/09/05 10:36:19;;;;;;;7.18;5.40;;;;;;;;;;4920863;29;20463;-47
2021/09/05 10:38:46;;;;;;;8.88;6.13;;;;;;;;;;4934776;29;20036;-48
2021/09/05 10:41:19;;;;;;;13.50;6.47;;;;;;;;;;4924448;29;20098;-46
2021/09/05 10:43:58;;;;;;;9.55;7.32;;;;;;;;;;4928499;29;20116;-46
2021/09/05 10:46:26;;;;;;;12.68;6.28;;;;;;;;;;4927934;29;20050;-47
2021/09/05 10:49:01;;;;;;;9.30;7.30;;;;;;;;;;4937411;29;20052;-48
2021/09/05 10:51:37;;;;;;;16.70;9.20;;;;;;;;;;4928635;29;20099;-47
2021/09/05 10:54:08;;;;;;;10.27;7.50;;;;;;;;;;4924471;29;20046;-47
2021/09/05 10:56:43;;;;;;;8.52;6.38;;;;;;;;;;4942751;23;20043;-46
2021/09/05 10:59:11;;;;;;;7.35;5.63;;;;;;;;;;4930635;29;20047;-48
2021/09/05 11:01:39;;;;;;;7.00;5.75;;;;;;;;;;4928322;29;20054;-48
2021/09/05 11:04:16;;;;;;;9.23;6.50;;;;;;;;;;4934380;29;20055;-49
2021/09/05 11:06:51;;;;;;;7.82;5.65;;;;;;;;;;4925982;29;20048;-49
2021/09/05 11:09:20;;;;;;;8.25;5.35;;;;;;;;;;4931334;29;20048;-48
2021/09/05 11:12:18;;;;;;;7.75;5.25;;;;;;;;;;4926287;29;20044;-50
2021/09/05 11:14:49;;;;;;;6.72;4.97;;;;;;;;;;4921879;29;20066;-49
2021/09/05 11:17:20;;;;;;;6.40;4.82;;;;;;;;;;4927536;29;20119;-48
2021/09/05 11:19:47;;;;;;;6.22;5.50;;;;;;;;;;4922681;29;20040;-49
2021/09/05 11:22:16;;;;;;;7.10;6.07;;;;;;;;;;4922427;29;20048;-50
2021/09/05 11:24:43;;;;;;;6.55;5.13;;;;;;;;;;4929069;29;20190;-51
2021/09/05 11:27:12;;;;;;;6.82;4.68;;;;;;;;;;4920980;29;20052;-48
2021/09/05 11:29:39;;;;;;;7.78;4.65;;;;;;;;;;4925743;29;20168;-49
2021/09/05 11:32:11;;;;;;;7.00;4.50;;;;;;;;;;4921071;29;20044;-50
2021/09/05 11:34:39;;;;;;;6.43;5.30;;;;;;;;;;4926435;29;20055;-49
2021/09/05 11:37:06;;;;;;;6.40;5.07;;;;;;;;;;4916786;29;20051;-47
2021/09/05 11:39:33;;;;;;;6.60;4.97;;;;;;;;;;4927458;29;20052;-47
2021/09/05 11:42:02;;;;;;;7.20;5.97;;;;;;;;;;4932622;29;20531;-50
2021/09/05 11:44:35;;;;;;;8.90;5.13;;;;;;;;;;4919866;29;20131;-47
2021/09/05 11:47:07;;;;;;;7.93;5.22;;;;;;;;;;4926662;29;20522;-47
2021/09/05 11:49:35;;;;;;;6.47;4.60;;;;;;;;;;4923149;29;20454;-48
2021/09/05 11:52:04;;;;;;;6.75;4.85;;;;;;;;;;4920757;29;20511;-51
2021/09/05 11:54:31;;;;;;;8.38;4.97;;;;;;;;;;4927695;29;20047;-48
2021/09/05 11:56:58;;;;;;;6.10;5.22;;;;;;;;;;4918569;29;20103;-50
2021/09/05 11:59:25;;;;;;;7.18;5.45;;;;;;;;;;4923701;29;20973;-52
2021/09/05 12:01:53;;;;;;;5.65;4.78;;;;;;;;;;4925161;29;20046;-49
2021/09/05 12:04:22;;;;;;;6.28;4.35;;;;;;;;;;4927892;29;20036;-52
2021/09/05 12:06:50;;;;;;;5.55;4.43;;;;;;;;;;4926274;29;20044;-48
2021/09/05 12:09:28;;;;;;;6.25;4.45;;;;;;;;;;4918352;29;20048;-52
2021/09/05 12:12:03;;;;;;;7.05;4.68;;;;;;;;;;4921102;29;20052;-49
2021/09/05 12:14:31;;;;;;;6.10;4.60;;;;;;;;;;4929053;29;20087;-49
2021/09/05 12:16:59;;;;;;;6.70;4.80;;;;;;;;;;4929561;29;20047;-48
2021/09/05 12:19:26;;;;;;;5.75;4.75;;;;;;;;;;4920033;29;20068;-49
2021/09/05 12:21:57;;;;;;;7.88;4.95;;;;;;;;;;4920885;29;20454;-50
2021/09/05 12:24:25;;;;;;;5.43;4.38;;;;;;;;;;4929361;29;20395;-48
2021/09/05 12:27:05;;;;;;;6.25;4.70;;;;;;;;;;4924018;29;20044;-52
2021/09/05 12:29:33;;;;;;;5.85;4.07;;;;;;;;;;4932067;29;20453;-52
2021/09/05 12:32:03;;;;;;;5.95;4.45;;;;;;;;;;4921816;29;20430;-54
2021/09/05 12:34:37;;;;;;;6.22;4.28;;;;;;;;;;4925452;29;20127;-50
2021/09/05 12:37:30;;;;;;;6.25;4.47;;;;;;;;;;4923189;29;20055;-52
2021/09/05 12:40:12;;;;;;;7.28;4.80;;;;;;;;;;4918831;29;20103;-52
2021/09/05 12:42:46;;;;;;;5.55;4.22;;;;;;;;;;4922339;29;20040;-51
2021/09/05 12:45:13;;;;;;;5.43;4.30;;;;;;;;;;4929983;29;20050;-51
2021/09/05 12:47:40;;;;;;;5.05;4.05;;;;;;;;;;4939607;29;20106;-50
2021/09/05 12:50:08;;;;;;;8.27;4.78;;;;;;;;;;4921495;29;20056;-53
2021/09/05 12:52:39;;;;;;;5.55;4.30;;;;;;;;;;4923847;29;20039;-54
2021/09/05 12:55:08;;;;;;;6.53;4.40;;;;;;;;;;4929265;29;20056;-53
2021/09/05 12:57:36;;;;;;;5.82;4.50;;;;;;;;;;4921855;29;20118;-51
2021/09/05 13:00:03;;;;;;;5.63;4.78;;;;;;;;;;4925478;29;20519;-51
2021/09/05 13:02:30;;;;;;;5.43;4.38;;;;;;;;;;4922368;29;20458;-53
2021/09/05 13:04:58;;;;;;;5.50;4.55;;;;;;;;;;4933015;29;20482;-53
2021/09/05 13:07:25;;;;;;;7.18;4.50;;;;;;;;;;4925175;29;20453;-51
2021/09/05 13:09:57;;;;;;;6.30;4.27;;;;;;;;;;4922721;29;20072;-50
2021/09/05 13:12:24;;;;;;;7.40;4.50;;;;;;;;;;4918283;29;20070;-50
2021/09/05 13:14:50;;;;;;;6.45;4.55;;;;;;;;;;4916232;29;20072;-52
2021/09/05 13:17:18;;;;;;;6.93;4.45;;;;;;;;;;4915941;29;20449;-52
2021/09/05 13:19:45;;;;;;;6.78;4.60;;;;;;;;;;4928516;29;20039;-49
2021/09/05 13:22:13;;;;;;;8.63;4.75;;;;;;;;;;4918490;29;20052;-48
2021/09/05 13:24:40;;;;;;;10.10;4.50;;;;;;;;;;4915717;29;20073;-50
2021/09/05 13:27:08;;;;;;;6.63;4.68;;;;;;;;;;4916296;29;20491;-52
2021/09/05 13:29:42;;;;;;;7.40;4.60;;;;;;;;;;4915692;29;20055;-49
2021/09/05 13:32:09;;;;;;;7.85;4.60;;;;;;;;;;4915834;29;20082;-52
2021/09/05 13:34:35;;;;;;;5.07;4.45;;;;;;;;;;4915659;29;20087;-52
2021/09/05 13:37:03;;;;;;;5.25;4.63;;;;;;;;;;4926238;29;20127;-49
2021/09/05 13:39:33;;;;;;;6.18;4.57;;;;;;;;;;4929433;29;20069;-52
2021/09/05 13:42:01;;;;;;;7.20;4.55;;;;;;;;;;4933771;29;20737;-52
2021/09/05 13:44:28;;;;;;;5.93;4.47;;;;;;;;;;4934565;29;20036;-50
2021/09/05 13:46:56;;;;;;;6.50;4.70;;;;;;;;;;4926694;29;20375;-49
2021/09/05 13:49:44;;;;;;;6.70;4.50;;;;;;;;;;4916079;29;20044;-49
2021/09/05 13:52:11;;;;;;;7.13;4.30;;;;;;;;;;4921175;29;20040;-48
2021/09/05 13:54:39;;;;;;;6.35;4.68;;;;;;;;;;4919109;29;20055;-49
2021/09/05 13:57:07;;;;;;;5.95;4.50;;;;;;;;;;4926976;29;20036;-49
2021/09/05 13:59:34;;;;;;;6.00;4.68;;;;;;;;;;4910621;29;20085;-49
2021/09/05 14:02:00;;;;;;;6.20;4.55;;;;;;;;;;4929551;29;20050;-50
2021/09/05 14:04:29;;;;;;;6.75;4.50;;;;;;;;;;4931561;29;20110;-49
2021/09/05 14:06:56;;;;;;;5.35;4.07;;;;;;;;;;4932493;29;20047;-49
2021/09/05 14:09:23;;;;;;;5.47;4.35;;;;;;;;;;4934680;29;20082;-48
2021/09/05 14:11:51;;;;;;;6.47;4.75;;;;;;;;;;4927547;29;20048;-48
2021/09/05 14:14:20;;;;;;;4.82;3.90;;;;;;;;;;4915187;29;20091;-48
2021/09/05 14:16:49;;;;;;;7.85;4.40;;;;;;;;;;4915631;29;20052;-51
2021/09/05 14:19:16;;;;;;;5.82;4.25;;;;;;;;;;4916759;29;20458;-52
2021/09/05 14:21:43;;;;;;;5.50;4.05;;;;;;;;;;4933787;29;20051;-49
2021/09/05 14:24:12;;;;;;;6.55;4.25;;;;;;;;;;4929103;29;20040;-47
2021/09/05 14:26:39;;;;;;;5.88;4.32;;;;;;;;;;4929716;29;20050;-47
2021/09/05 14:29:14;;;;;;;6.22;4.35;;;;;;;;;;4916138;29;20044;-47
2021/09/05 14:31:52;;;;;;;6.50;4.30;;;;;;;;;;4915558;29;20130;-46
2021/09/05 14:34:45;;;;;;;6.22;4.20;;;;;;;;;;4922399;29;20640;-48
2021/09/05 14:48:23;;;;;;;6.97;4.07;;;;;;;;;;4926643;29;20131;-49
2021/09/05 14:56:19;;;;;;;5.15;3.97;;;;;;;;;;4896423;29;20506;-49
2021/09/05 15:01:40;;;;;;;6.03;4.65;;;;;;;;;;4933358;29;20516;-47
2021/09/05 15:11:53;;;;;;;6.07;4.10;;;;;;;;;;4917414;29;20040;-51
2021/09/05 15:14:23;;;;;;;5.15;3.60;;;;;;;;;;4931103;29;20078;-54
2021/09/05 15:16:50;;;;;;;6.55;4.28;;;;;;;;;;4932349;29;20032;-50
2021/09/05 15:19:20;;;;;;;6.55;4.50;;;;;;;;;;4918548;29;20043;-51
2021/09/05 15:21:53;;;;;;;5.20;4.10;;;;;;;;;;4923285;29;20454;-53
2021/09/05 15:24:21;;;;;;;6.13;3.85;;;;;;;;;;4937202;29;20052;-50
2021/09/05 15:26:57;;;;;;;6.40;4.82;;;;;;;;;;4933916;29;20055;-50
2021/09/05 15:32:40;;;;;;;5.93;4.22;;;;;;;;;;4937334;29;20111;-48